sensor_id;sensor_type;location;lat;lon;timestamp;temperature;humidity
45761;DHT22;31471;51.040;14.414;2023-03-19T00:00:06;3.80;99.90
45761;DHT22;31471;51.040;14.414;2023-03-19T00:02:33;3.80;99.90
45761;DHT22;31471;51.040;14.414;2023-03-19T00:04:58;3.80;99.90
45761;DHT22;31471;51.040;14.414;2023-03-19T00:07:24;3.80;99.90
45761;DHT22;31471;51.040;14.414;2023-03-19T00:09:49;3.80;99.90
45761;DHT22;31471;51.040;14.414;2023-03-19T00:12:15;3.90;99.90
45761;DHT22;31471;51.040;14.414;2023-03-19T00:14:40;3.90;99.90
45761;DHT22;31471;51.040;14.414;2023-03-19T00:17:06;3.90;99.90
45761;DHT22;31471;51.040;14.414;2023-03-19T00:19:32;3.90;99.90
45761;DHT22;31471;51.040;14.414;2023-03-19T00:21:57;3.80;99.90
45761;DHT22;31471;51.040;14.414;2023-03-19T00:24:23;3.80;99.90
45761;DHT22;31471;51.040;14.414;2023-03-19T00:26:48;3.80;99.90
45761;DHT22;31471;51.040;14.414;2023-03-19T00:29:14;3.80;99.90
45761;DHT22;31471;51.040;14.414;2023-03-19T00:31:39;3.80;99.90
45761;DHT22;31471;51.040;14.414;2023-03-19T00:34:06;3.80;99.90
45761;DHT22;31471;51.040;14.414;2023-03-19T00:36:33;3.90;99.90
45761;DHT22;31471;51.040;14.414;2023-03-19T00:38:59;3.80;99.90
45761;DHT22;31471;51.040;14.414;2023-03-19T00:41:25;3.80;99.90
45761;DHT22;31471;51.040;14.414;2023-03-19T00:43:51;3.80;99.90
45761;DHT22;31471;51.040;14.414;2023-03-19T00:46:16;3.80;99.90
45761;DHT22;31471;51.040;14.414;2023-03-19T00:48:42;3.80;99.90
45761;DHT22;31471;51.040;14.414;2023-03-19T00:51:08;3.80;99.90
45761;DHT22;31471;51.040;14.414;2023-03-19T00:53:37;3.70;99.90
45761;DHT22;31471;51.040;14.414;2023-03-19T00:56:03;3.80;99.90
45761;DHT22;31471;51.040;14.414;2023-03-19T00:58:29;3.70;99.90
45761;DHT22;31471;51.040;14.414;2023-03-19T01:00:54;3.80;99.90
45761;DHT22;31471;51.040;14.414;2023-03-19T01:03:20;3.80;99.90
45761;DHT22;31471;51.040;14.414;2023-03-19T01:05:46;3.80;99.90
45761;DHT22;31471;51.040;14.414;2023-03-19T01:08:12;3.80;99.90
45761;DHT22;31471;51.040;14.414;2023-03-19T01:10:38;3.80;99.90
45761;DHT22;31471;51.040;14.414;2023-03-19T01:13:04;3.90;99.90
45761;DHT22;31471;51.040;14.414;2023-03-19T01:15:29;3.90;99.90
45761;DHT22;31471;51.040;14.414;2023-03-19T01:17:55;3.80;99.90
45761;DHT22;31471;51.040;14.414;2023-03-19T01:20:21;3.90;99.90
45761;DHT22;31471;51.040;14.414;2023-03-19T01:22:48;3.80;99.90
45761;DHT22;31471;51.040;14.414;2023-03-19T01:25:14;3.70;99.90
45761;DHT22;31471;51.040;14.414;2023-03-19T01:27:46;3.80;99.90
45761;DHT22;31471;51.040;14.414;2023-03-19T01:30:13;3.80;99.90
45761;DHT22;31471;51.040;14.414;2023-03-19T01:32:58;3.90;99.90
45761;DHT22;31471;51.040;14.414;2023-03-19T01:35:35;4.00;99.90
45761;DHT22;31471;51.040;14.414;2023-03-19T01:38:02;4.00;99.90
45761;DHT22;31471;51.040;14.414;2023-03-19T01:40:28;4.10;99.90
45761;DHT22;31471;51.040;14.414;2023-03-19T01:43:17;4.00;99.90
45761;DHT22;31471;51.040;14.414;2023-03-19T01:45:45;4.00;99.90
45761;DHT22;31471;51.040;14.414;2023-03-19T01:48:40;4.10;99.90
45761;DHT22;31471;51.040;14.414;2023-03-19T01:51:11;4.00;99.90
45761;DHT22;31471;51.040;14.414;2023-03-19T01:54:02;4.00;99.90
45761;DHT22;31471;51.040;14.414;2023-03-19T01:57:02;3.90;99.90
45761;DHT22;31471;51.040;14.414;2023-03-19T01:59:50;4.00;99.90
45761;DHT22;31471;51.040;14.414;2023-03-19T02:02:41;4.10;99.90
45761;DHT22;31471;51.040;14.414;2023-03-19T02:05:18;4.20;99.90
45761;DHT22;31471;51.040;14.414;2023-03-19T02:07:51;4.30;99.90
45761;DHT22;31471;51.040;14.414;2023-03-19T02:10:17;4.40;99.90
45761;DHT22;31471;51.040;14.414;2023-03-19T02:12:43;4.30;99.90
45761;DHT22;31471;51.040;14.414;2023-03-19T02:15:09;4.30;99.90
45761;DHT22;31471;51.040;14.414;2023-03-19T02:17:35;4.20;99.90
45761;DHT22;31471;51.040;14.414;2023-03-19T02:20:07;4.20;99.90
45761;DHT22;31471;51.040;14.414;2023-03-19T02:22:36;4.20;99.90
45761;DHT22;31471;51.040;14.414;2023-03-19T02:25:11;4.20;99.90
45761;DHT22;31471;51.040;14.414;2023-03-19T02:27:40;4.20;99.90
45761;DHT22;31471;51.040;14.414;2023-03-19T02:30:24;4.10;99.90
45761;DHT22;31471;51.040;14.414;2023-03-19T02:32:50;4.20;99.90
45761;DHT22;31471;51.040;14.414;2023-03-19T02:35:16;4.10;99.90
45761;DHT22;31471;51.040;14.414;2023-03-19T02:37:41;4.20;99.90
45761;DHT22;31471;51.040;14.414;2023-03-19T02:40:26;4.10;99.90
45761;DHT22;31471;51.040;14.414;2023-03-19T02:42:53;4.10;99.90
45761;DHT22;31471;51.040;14.414;2023-03-19T02:45:20;4.10;99.90
45761;DHT22;31471;51.040;14.414;2023-03-19T02:47:46;4.30;99.90
45761;DHT22;31471;51.040;14.414;2023-03-19T02:50:12;4.30;99.90
45761;DHT22;31471;51.040;14.414;2023-03-19T02:52:37;4.40;99.90
45761;DHT22;31471;51.040;14.414;2023-03-19T02:55:03;4.50;99.90
45761;DHT22;31471;51.040;14.414;2023-03-19T02:57:29;4.50;99.90
45761;DHT22;31471;51.040;14.414;2023-03-19T02:59:54;4.70;99.90
45761;DHT22;31471;51.040;14.414;2023-03-19T03:02:20;4.60;99.90
45761;DHT22;31471;51.040;14.414;2023-03-19T03:04:46;4.60;99.90
45761;DHT22;31471;51.040;14.414;2023-03-19T03:07:12;4.50;99.90
45761;DHT22;31471;51.040;14.414;2023-03-19T03:09:37;4.50;99.90
45761;DHT22;31471;51.040;14.414;2023-03-19T03:12:03;4.40;99.90
45761;DHT22;31471;51.040;14.414;2023-03-19T03:14:29;4.30;99.90
45761;DHT22;31471;51.040;14.414;2023-03-19T03:16:54;4.30;99.90
45761;DHT22;31471;51.040;14.414;2023-03-19T03:19:21;4.20;99.90
45761;DHT22;31471;51.040;14.414;2023-03-19T03:21:47;4.30;99.90
45761;DHT22;31471;51.040;14.414;2023-03-19T03:24:13;4.20;99.90
45761;DHT22;31471;51.040;14.414;2023-03-19T03:26:39;4.20;99.90
45761;DHT22;31471;51.040;14.414;2023-03-19T03:29:04;4.20;99.90
45761;DHT22;31471;51.040;14.414;2023-03-19T03:31:30;4.20;99.90
45761;DHT22;31471;51.040;14.414;2023-03-19T03:33:56;4.10;99.90
45761;DHT22;31471;51.040;14.414;2023-03-19T03:36:21;4.10;99.90
45761;DHT22;31471;51.040;14.414;2023-03-19T03:38:47;4.10;99.90
45761;DHT22;31471;51.040;14.414;2023-03-19T03:41:14;4.10;99.90
45761;DHT22;31471;51.040;14.414;2023-03-19T03:43:39;4.20;99.90
45761;DHT22;31471;51.040;14.414;2023-03-19T03:46:07;4.10;99.90
45761;DHT22;31471;51.040;14.414;2023-03-19T03:48:33;4.10;99.90
45761;DHT22;31471;51.040;14.414;2023-03-19T03:50:58;4.20;99.90
45761;DHT22;31471;51.040;14.414;2023-03-19T03:53:26;4.20;99.90
45761;DHT22;31471;51.040;14.414;2023-03-19T03:55:52;4.20;99.90
45761;DHT22;31471;51.040;14.414;2023-03-19T03:58:20;4.20;99.90
45761;DHT22;31471;51.040;14.414;2023-03-19T04:00:46;4.20;99.90
45761;DHT22;31471;51.040;14.414;2023-03-19T04:03:12;4.20;99.90
45761;DHT22;31471;51.040;14.414;2023-03-19T04:05:38;4.20;99.90
45761;DHT22;31471;51.040;14.414;2023-03-19T04:08:04;4.10;99.90
45761;DHT22;31471;51.040;14.414;2023-03-19T04:10:30;4.20;99.90
45761;DHT22;31471;51.040;14.414;2023-03-19T04:12:55;4.20;99.90
45761;DHT22;31471;51.040;14.414;2023-03-19T04:15:22;4.30;99.90
45761;DHT22;31471;51.040;14.414;2023-03-19T04:17:49;4.20;99.90
45761;DHT22;31471;51.040;14.414;2023-03-19T04:20:16;4.20;99.90
45761;DHT22;31471;51.040;14.414;2023-03-19T04:22:43;4.20;99.90
45761;DHT22;31471;51.040;14.414;2023-03-19T04:25:08;4.20;99.90
45761;DHT22;31471;51.040;14.414;2023-03-19T04:27:35;4.20;99.90
45761;DHT22;31471;51.040;14.414;2023-03-19T04:30:02;4.20;99.90
45761;DHT22;31471;51.040;14.414;2023-03-19T04:32:28;4.20;99.90
45761;DHT22;31471;51.040;14.414;2023-03-19T04:34:53;4.30;99.90
45761;DHT22;31471;51.040;14.414;2023-03-19T04:37:19;4.30;99.90
45761;DHT22;31471;51.040;14.414;2023-03-19T04:39:48;4.20;99.90
45761;DHT22;31471;51.040;14.414;2023-03-19T04:42:14;4.20;99.90
45761;DHT22;31471;51.040;14.414;2023-03-19T04:44:46;4.30;99.90
45761;DHT22;31471;51.040;14.414;2023-03-19T04:47:12;4.40;99.90
45761;DHT22;31471;51.040;14.414;2023-03-19T04:49:47;4.40;99.90
45761;DHT22;31471;51.040;14.414;2023-03-19T04:52:14;4.50;99.90
45761;DHT22;31471;51.040;14.414;2023-03-19T04:54:39;4.60;99.90
45761;DHT22;31471;51.040;14.414;2023-03-19T04:57:06;4.60;99.90
45761;DHT22;31471;51.040;14.414;2023-03-19T04:59:35;4.70;99.90
45761;DHT22;31471;51.040;14.414;2023-03-19T05:02:01;4.70;99.90
45761;DHT22;31471;51.040;14.414;2023-03-19T05:04:27;4.80;99.90
45761;DHT22;31471;51.040;14.414;2023-03-19T05:06:58;4.80;99.90
45761;DHT22;31471;51.040;14.414;2023-03-19T05:09:23;4.80;99.90
45761;DHT22;31471;51.040;14.414;2023-03-19T05:11:49;4.90;99.90
45761;DHT22;31471;51.040;14.414;2023-03-19T05:14:18;4.80;99.90
45761;DHT22;31471;51.040;14.414;2023-03-19T05:17:02;4.80;99.90
45761;DHT22;31471;51.040;14.414;2023-03-19T05:19:39;4.90;99.90
45761;DHT22;31471;51.040;14.414;2023-03-19T05:22:07;4.90;99.90
45761;DHT22;31471;51.040;14.414;2023-03-19T05:24:33;4.90;99.90
45761;DHT22;31471;51.040;14.414;2023-03-19T05:26:59;4.80;99.90
45761;DHT22;31471;51.040;14.414;2023-03-19T05:29:33;4.80;99.90
45761;DHT22;31471;51.040;14.414;2023-03-19T05:32:21;4.80;99.90
45761;DHT22;31471;51.040;14.414;2023-03-19T05:34:47;4.80;99.90
45761;DHT22;31471;51.040;14.414;2023-03-19T05:37:12;4.80;99.90
45761;DHT22;31471;51.040;14.414;2023-03-19T05:39:39;4.80;99.90
45761;DHT22;31471;51.040;14.414;2023-03-19T05:42:07;4.80;99.90
45761;DHT22;31471;51.040;14.414;2023-03-19T05:44:33;4.90;99.90
45761;DHT22;31471;51.040;14.414;2023-03-19T05:47:22;4.80;99.90
45761;DHT22;31471;51.040;14.414;2023-03-19T05:49:51;4.90;99.90
45761;DHT22;31471;51.040;14.414;2023-03-19T05:52:17;4.90;99.90
45761;DHT22;31471;51.040;14.414;2023-03-19T05:54:44;4.80;99.90
45761;DHT22;31471;51.040;14.414;2023-03-19T05:57:32;4.80;99.90
45761;DHT22;31471;51.040;14.414;2023-03-19T06:00:20;4.80;99.90
45761;DHT22;31471;51.040;14.414;2023-03-19T06:02:46;4.80;99.90
45761;DHT22;31471;51.040;14.414;2023-03-19T06:05:32;4.90;99.90
45761;DHT22;31471;51.040;14.414;2023-03-19T06:08:04;5.00;99.90
45761;DHT22;31471;51.040;14.414;2023-03-19T06:10:44;5.10;99.90
45761;DHT22;31471;51.040;14.414;2023-03-19T06:13:10;5.10;99.90
45761;DHT22;31471;51.040;14.414;2023-03-19T06:15:54;5.20;99.90
45761;DHT22;31471;51.040;14.414;2023-03-19T06:18:24;5.40;99.90
45761;DHT22;31471;51.040;14.414;2023-03-19T06:20:49;5.50;99.90
45761;DHT22;31471;51.040;14.414;2023-03-19T06:23:16;5.60;99.90
45761;DHT22;31471;51.040;14.414;2023-03-19T06:25:41;5.70;99.90
45761;DHT22;31471;51.040;14.414;2023-03-19T06:28:07;5.70;99.90
45761;DHT22;31471;51.040;14.414;2023-03-19T06:30:37;5.90;99.90
45761;DHT22;31471;51.040;14.414;2023-03-19T06:33:10;5.90;99.90
45761;DHT22;31471;51.040;14.414;2023-03-19T06:35:35;6.00;99.90
45761;DHT22;31471;51.040;14.414;2023-03-19T06:38:01;6.10;99.90
45761;DHT22;31471;51.040;14.414;2023-03-19T06:40:26;6.20;99.90
45761;DHT22;31471;51.040;14.414;2023-03-19T06:42:52;6.30;99.90
45761;DHT22;31471;51.040;14.414;2023-03-19T06:45:18;6.30;99.90
45761;DHT22;31471;51.040;14.414;2023-03-19T06:47:44;6.50;99.90
45761;DHT22;31471;51.040;14.414;2023-03-19T06:50:10;6.60;99.90
45761;DHT22;31471;51.040;14.414;2023-03-19T06:52:36;6.60;99.90
45761;DHT22;31471;51.040;14.414;2023-03-19T06:55:02;6.70;99.90
45761;DHT22;31471;51.040;14.414;2023-03-19T06:57:28;6.80;99.90
45761;DHT22;31471;51.040;14.414;2023-03-19T06:59:54;6.80;99.90
45761;DHT22;31471;51.040;14.414;2023-03-19T07:02:19;7.00;99.90
45761;DHT22;31471;51.040;14.414;2023-03-19T07:04:45;7.00;99.90
45761;DHT22;31471;51.040;14.414;2023-03-19T07:07:10;7.20;99.90
45761;DHT22;31471;51.040;14.414;2023-03-19T07:09:36;7.30;99.90
45761;DHT22;31471;51.040;14.414;2023-03-19T07:12:01;7.30;99.90
45761;DHT22;31471;51.040;14.414;2023-03-19T07:14:27;7.40;99.90
45761;DHT22;31471;51.040;14.414;2023-03-19T07:16:52;7.50;99.90
45761;DHT22;31471;51.040;14.414;2023-03-19T07:19:18;7.60;99.90
45761;DHT22;31471;51.040;14.414;2023-03-19T07:21:43;7.60;98.70
45761;DHT22;31471;51.040;14.414;2023-03-19T07:24:09;7.70;99.00
45761;DHT22;31471;51.040;14.414;2023-03-19T07:26:34;7.80;99.10
45761;DHT22;31471;51.040;14.414;2023-03-19T07:29:00;7.90;98.90
45761;DHT22;31471;51.040;14.414;2023-03-19T07:31:26;7.90;99.90
45761;DHT22;31471;51.040;14.414;2023-03-19T07:33:51;7.90;98.30
45761;DHT22;31471;51.040;14.414;2023-03-19T07:36:17;8.00;97.80
45761;DHT22;31471;51.040;14.414;2023-03-19T07:38:42;8.10;97.30
45761;DHT22;31471;51.040;14.414;2023-03-19T07:41:08;8.10;98.20
45761;DHT22;31471;51.040;14.414;2023-03-19T07:43:33;8.20;98.20
45761;DHT22;31471;51.040;14.414;2023-03-19T07:45:59;8.20;96.30
45761;DHT22;31471;51.040;14.414;2023-03-19T07:48:25;8.30;97.40
45761;DHT22;31471;51.040;14.414;2023-03-19T07:50:51;8.40;96.90
45761;DHT22;31471;51.040;14.414;2023-03-19T07:53:17;8.50;97.20
45761;DHT22;31471;51.040;14.414;2023-03-19T07:55:42;8.60;96.50
45761;DHT22;31471;51.040;14.414;2023-03-19T07:58:09;8.60;97.10
45761;DHT22;31471;51.040;14.414;2023-03-19T08:00:35;8.70;96.30
45761;DHT22;31471;51.040;14.414;2023-03-19T08:03:01;8.80;95.90
45761;DHT22;31471;51.040;14.414;2023-03-19T08:05:26;8.90;96.20
45761;DHT22;31471;51.040;14.414;2023-03-19T08:07:51;9.00;96.70
45761;DHT22;31471;51.040;14.414;2023-03-19T08:10:17;9.00;95.60
45761;DHT22;31471;51.040;14.414;2023-03-19T08:12:42;9.10;96.70
45761;DHT22;31471;51.040;14.414;2023-03-19T08:15:09;9.20;96.70
45761;DHT22;31471;51.040;14.414;2023-03-19T08:17:34;9.20;95.80
45761;DHT22;31471;51.040;14.414;2023-03-19T08:20:09;9.30;97.90
45761;DHT22;31471;51.040;14.414;2023-03-19T08:22:35;9.40;95.70
45761;DHT22;31471;51.040;14.414;2023-03-19T08:25:01;9.40;96.20
45761;DHT22;31471;51.040;14.414;2023-03-19T08:27:27;9.40;96.20
45761;DHT22;31471;51.040;14.414;2023-03-19T08:29:55;9.50;96.50
45761;DHT22;31471;51.040;14.414;2023-03-19T08:32:20;9.60;95.80
45761;DHT22;31471;51.040;14.414;2023-03-19T08:34:46;9.60;96.40
45761;DHT22;31471;51.040;14.414;2023-03-19T08:37:11;9.60;94.80
45761;DHT22;31471;51.040;14.414;2023-03-19T08:39:36;9.60;95.60
45761;DHT22;31471;51.040;14.414;2023-03-19T08:42:02;9.70;96.20
45761;DHT22;31471;51.040;14.414;2023-03-19T08:44:27;9.80;95.40
45761;DHT22;31471;51.040;14.414;2023-03-19T08:46:53;9.90;96.30
45761;DHT22;31471;51.040;14.414;2023-03-19T08:49:18;9.90;95.30
45761;DHT22;31471;51.040;14.414;2023-03-19T08:51:44;10.00;94.50
45761;DHT22;31471;51.040;14.414;2023-03-19T08:54:09;10.00;94.30
45761;DHT22;31471;51.040;14.414;2023-03-19T08:56:35;10.20;94.90
45761;DHT22;31471;51.040;14.414;2023-03-19T08:59:01;10.10;93.60
45761;DHT22;31471;51.040;14.414;2023-03-19T09:01:26;10.20;93.10
45761;DHT22;31471;51.040;14.414;2023-03-19T09:03:52;10.10;93.70
45761;DHT22;31471;51.040;14.414;2023-03-19T09:06:17;10.20;94.10
45761;DHT22;31471;51.040;14.414;2023-03-19T09:08:43;10.20;93.80
45761;DHT22;31471;51.040;14.414;2023-03-19T09:11:09;10.30;93.90
45761;DHT22;31471;51.040;14.414;2023-03-19T09:13:35;10.40;93.50
45761;DHT22;31471;51.040;14.414;2023-03-19T09:16:01;10.60;93.80
45761;DHT22;31471;51.040;14.414;2023-03-19T09:18:26;10.60;93.60
45761;DHT22;31471;51.040;14.414;2023-03-19T09:20:52;10.70;92.90
45761;DHT22;31471;51.040;14.414;2023-03-19T09:23:18;10.80;92.80
45761;DHT22;31471;51.040;14.414;2023-03-19T09:25:43;10.90;93.10
45761;DHT22;31471;51.040;14.414;2023-03-19T09:28:09;11.00;93.30
45761;DHT22;31471;51.040;14.414;2023-03-19T09:30:35;11.10;91.50
45761;DHT22;31471;51.040;14.414;2023-03-19T09:33:01;11.10;92.70
45761;DHT22;31471;51.040;14.414;2023-03-19T09:35:28;11.10;93.00
45761;DHT22;31471;51.040;14.414;2023-03-19T09:38:01;11.30;93.00
45761;DHT22;31471;51.040;14.414;2023-03-19T09:40:33;11.30;91.60
45761;DHT22;31471;51.040;14.414;2023-03-19T09:43:16;11.30;92.10
45761;DHT22;31471;51.040;14.414;2023-03-19T09:45:45;11.30;90.90
45761;DHT22;31471;51.040;14.414;2023-03-19T09:48:13;11.40;91.30
45761;DHT22;31471;51.040;14.414;2023-03-19T09:50:40;11.60;91.60
45761;DHT22;31471;51.040;14.414;2023-03-19T09:55:51;11.70;91.50
45761;DHT22;31471;51.040;14.414;2023-03-19T10:00:45;11.90;88.00
45761;DHT22;31471;51.040;14.414;2023-03-19T10:05:45;11.90;87.70
45761;DHT22;31471;51.040;14.414;2023-03-19T10:11:13;12.00;87.70
45761;DHT22;31471;51.040;14.414;2023-03-19T10:16:26;12.10;87.90
45761;DHT22;31471;51.040;14.414;2023-03-19T10:18:53;12.40;88.20
45761;DHT22;31471;51.040;14.414;2023-03-19T10:21:24;12.60;87.00
45761;DHT22;31471;51.040;14.414;2023-03-19T10:23:56;12.50;84.40
45761;DHT22;31471;51.040;14.414;2023-03-19T10:26:25;12.60;88.30
45761;DHT22;31471;51.040;14.414;2023-03-19T10:29:03;13.00;85.60
45761;DHT22;31471;51.040;14.414;2023-03-19T10:31:43;13.10;85.40
45761;DHT22;31471;51.040;14.414;2023-03-19T10:34:13;13.20;84.30
45761;DHT22;31471;51.040;14.414;2023-03-19T10:36:43;13.40;84.30
45761;DHT22;31471;51.040;14.414;2023-03-19T10:39:09;13.50;85.50
45761;DHT22;31471;51.040;14.414;2023-03-19T10:41:56;13.60;83.80
45761;DHT22;31471;51.040;14.414;2023-03-19T10:44:27;13.70;82.30
45761;DHT22;31471;51.040;14.414;2023-03-19T10:46:58;13.80;80.10
45761;DHT22;31471;51.040;14.414;2023-03-19T10:49:24;13.80;80.80
45761;DHT22;31471;51.040;14.414;2023-03-19T10:51:49;13.90;82.10
45761;DHT22;31471;51.040;14.414;2023-03-19T10:54:22;13.90;80.30
45761;DHT22;31471;51.040;14.414;2023-03-19T10:56:48;14.10;78.00
45761;DHT22;31471;51.040;14.414;2023-03-19T10:59:19;14.00;77.70
45761;DHT22;31471;51.040;14.414;2023-03-19T11:01:45;13.90;79.70
45761;DHT22;31471;51.040;14.414;2023-03-19T11:04:20;14.10;80.20
45761;DHT22;31471;51.040;14.414;2023-03-19T11:06:50;14.20;82.20
45761;DHT22;31471;51.040;14.414;2023-03-19T11:11:47;14.40;81.70
45761;DHT22;31471;51.040;14.414;2023-03-19T11:14:18;14.30;77.40
45761;DHT22;31471;51.040;14.414;2023-03-19T11:19:17;14.30;75.70
45761;DHT22;31471;51.040;14.414;2023-03-19T11:21:44;14.40;75.90
45761;DHT22;31471;51.040;14.414;2023-03-19T11:24:18;14.40;74.60
45761;DHT22;31471;51.040;14.414;2023-03-19T11:26:48;14.40;74.90
45761;DHT22;31471;51.040;14.414;2023-03-19T11:29:18;14.50;77.20
45761;DHT22;31471;51.040;14.414;2023-03-19T11:31:45;14.50;76.10
45761;DHT22;31471;51.040;14.414;2023-03-19T11:34:23;14.80;76.50
45761;DHT22;31471;51.040;14.414;2023-03-19T11:39:47;14.70;74.90
45761;DHT22;31471;51.040;14.414;2023-03-19T11:42:39;15.00;75.40
45761;DHT22;31471;51.040;14.414;2023-03-19T11:45:12;15.00;75.00
45761;DHT22;31471;51.040;14.414;2023-03-19T11:58:01;15.00;75.10
45761;DHT22;31471;51.040;14.414;2023-03-19T12:00:35;14.90;75.50
45761;DHT22;31471;51.040;14.414;2023-03-19T12:11:15;14.70;76.10
45761;DHT22;31471;51.040;14.414;2023-03-19T12:13:45;14.60;76.20
45761;DHT22;31471;51.040;14.414;2023-03-19T12:16:23;14.60;76.00
45761;DHT22;31471;51.040;14.414;2023-03-19T12:21:26;14.30;78.00
45761;DHT22;31471;51.040;14.414;2023-03-19T12:26:54;14.10;77.40
45761;DHT22;31471;51.040;14.414;2023-03-19T12:29:27;14.20;77.80
45761;DHT22;31471;51.040;14.414;2023-03-19T12:32:15;14.20;77.30
45761;DHT22;31471;51.040;14.414;2023-03-19T12:34:53;13.90;75.80
45761;DHT22;31471;51.040;14.414;2023-03-19T12:37:23;14.00;77.20
45761;DHT22;31471;51.040;14.414;2023-03-19T12:39:52;13.80;76.80
45761;DHT22;31471;51.040;14.414;2023-03-19T12:42:20;13.70;77.00
45761;DHT22;31471;51.040;14.414;2023-03-19T12:44:47;13.60;77.90
45761;DHT22;31471;51.040;14.414;2023-03-19T12:47:15;13.50;78.00
45761;DHT22;31471;51.040;14.414;2023-03-19T12:49:47;13.60;79.80
45761;DHT22;31471;51.040;14.414;2023-03-19T12:54:47;13.40;87.80
45761;DHT22;31471;51.040;14.414;2023-03-19T12:59:47;13.10;91.30
45761;DHT22;31471;51.040;14.414;2023-03-19T13:02:25;13.10;91.60
45761;DHT22;31471;51.040;14.414;2023-03-19T13:04:55;13.00;91.70
45761;DHT22;31471;51.040;14.414;2023-03-19T13:07:30;13.00;90.90
45761;DHT22;31471;51.040;14.414;2023-03-19T13:10:06;13.00;92.90
45761;DHT22;31471;51.040;14.414;2023-03-19T13:12:34;13.20;92.60
45761;DHT22;31471;51.040;14.414;2023-03-19T13:15:04;13.10;91.70
45761;DHT22;31471;51.040;14.414;2023-03-19T13:19:57;13.40;91.80
45761;DHT22;31471;51.040;14.414;2023-03-19T13:22:30;13.60;92.10
45761;DHT22;31471;51.040;14.414;2023-03-19T13:24:57;13.80;92.20
45761;DHT22;31471;51.040;14.414;2023-03-19T13:27:31;13.90;92.00
45761;DHT22;31471;51.040;14.414;2023-03-19T13:30:05;14.00;86.60
45761;DHT22;31471;51.040;14.414;2023-03-19T13:32:48;14.00;86.70
45761;DHT22;31471;51.040;14.414;2023-03-19T13:35:30;14.10;85.60
45761;DHT22;31471;51.040;14.414;2023-03-19T13:37:58;14.20;85.40
45761;DHT22;31471;51.040;14.414;2023-03-19T13:40:37;14.30;85.70
45761;DHT22;31471;51.040;14.414;2023-03-19T13:43:02;14.30;83.70
45761;DHT22;31471;51.040;14.414;2023-03-19T13:45:35;14.50;84.40
45761;DHT22;31471;51.040;14.414;2023-03-19T13:50:49;14.50;81.40
45761;DHT22;31471;51.040;14.414;2023-03-19T13:53:20;14.50;82.50
45761;DHT22;31471;51.040;14.414;2023-03-19T13:58:13;14.80;82.80
45761;DHT22;31471;51.040;14.414;2023-03-19T14:01:05;14.60;80.70
45761;DHT22;31471;51.040;14.414;2023-03-19T14:03:34;14.70;81.10
45761;DHT22;31471;51.040;14.414;2023-03-19T14:06:00;14.70;81.00
45761;DHT22;31471;51.040;14.414;2023-03-19T14:08:27;14.80;80.50
45761;DHT22;31471;51.040;14.414;2023-03-19T14:10:57;14.70;82.50
45761;DHT22;31471;51.040;14.414;2023-03-19T14:13:46;14.70;80.00
45761;DHT22;31471;51.040;14.414;2023-03-19T14:16:25;14.80;81.50
45761;DHT22;31471;51.040;14.414;2023-03-19T14:18:58;14.90;80.50
45761;DHT22;31471;51.040;14.414;2023-03-19T14:21:41;14.90;81.50
45761;DHT22;31471;51.040;14.414;2023-03-19T14:26:45;14.90;79.00
45761;DHT22;31471;51.040;14.414;2023-03-19T14:29:12;15.00;79.20
45761;DHT22;31471;51.040;14.414;2023-03-19T14:31:48;15.10;78.50
45761;DHT22;31471;51.040;14.414;2023-03-19T14:34:25;15.00;78.10
45761;DHT22;31471;51.040;14.414;2023-03-19T14:36:54;15.00;78.80
45761;DHT22;31471;51.040;14.414;2023-03-19T14:39:23;14.90;78.50
45761;DHT22;31471;51.040;14.414;2023-03-19T14:41:57;15.00;80.60
45761;DHT22;31471;51.040;14.414;2023-03-19T14:47:16;14.90;80.70
45761;DHT22;31471;51.040;14.414;2023-03-19T14:52:34;14.80;79.80
45761;DHT22;31471;51.040;14.414;2023-03-19T14:55:01;14.70;79.10
45761;DHT22;31471;51.040;14.414;2023-03-19T14:57:28;14.70;79.60
45761;DHT22;31471;51.040;14.414;2023-03-19T14:59:54;14.70;77.80
45761;DHT22;31471;51.040;14.414;2023-03-19T15:02:30;14.60;78.80
45761;DHT22;31471;51.040;14.414;2023-03-19T15:04:57;14.60;79.20
45761;DHT22;31471;51.040;14.414;2023-03-19T15:07:25;14.50;79.70
45761;DHT22;31471;51.040;14.414;2023-03-19T15:09:53;14.30;80.50
45761;DHT22;31471;51.040;14.414;2023-03-19T15:15:13;14.30;80.30
45761;DHT22;31471;51.040;14.414;2023-03-19T15:17:41;14.30;79.40
45761;DHT22;31471;51.040;14.414;2023-03-19T15:20:17;14.10;80.00
45761;DHT22;31471;51.040;14.414;2023-03-19T15:22:45;13.90;80.30
45761;DHT22;31471;51.040;14.414;2023-03-19T15:25:17;14.00;80.00
45761;DHT22;31471;51.040;14.414;2023-03-19T15:27:42;13.80;81.70
45761;DHT22;31471;51.040;14.414;2023-03-19T15:30:18;13.90;82.80
45761;DHT22;31471;51.040;14.414;2023-03-19T15:32:44;13.80;82.10
45761;DHT22;31471;51.040;14.414;2023-03-19T15:35:10;13.80;81.70
45761;DHT22;31471;51.040;14.414;2023-03-19T15:37:36;13.80;82.30
45761;DHT22;31471;51.040;14.414;2023-03-19T15:40:04;13.80;82.10
45761;DHT22;31471;51.040;14.414;2023-03-19T15:42:32;13.90;81.60
45761;DHT22;31471;51.040;14.414;2023-03-19T15:45:01;13.60;81.80
45761;DHT22;31471;51.040;14.414;2023-03-19T15:47:29;13.60;81.90
45761;DHT22;31471;51.040;14.414;2023-03-19T15:49:57;13.60;82.50
45761;DHT22;31471;51.040;14.414;2023-03-19T15:52:24;13.40;83.50
45761;DHT22;31471;51.040;14.414;2023-03-19T15:54:50;13.40;82.80
45761;DHT22;31471;51.040;14.414;2023-03-19T15:57:16;13.40;83.10
45761;DHT22;31471;51.040;14.414;2023-03-19T15:59:42;13.20;83.40
45761;DHT22;31471;51.040;14.414;2023-03-19T16:05:03;13.20;85.50
45761;DHT22;31471;51.040;14.414;2023-03-19T16:09:54;13.10;83.20
45761;DHT22;31471;51.040;14.414;2023-03-19T16:12:38;13.10;83.70
45761;DHT22;31471;51.040;14.414;2023-03-19T16:15:19;12.90;84.20
45761;DHT22;31471;51.040;14.414;2023-03-19T16:17:46;12.90;83.60
45761;DHT22;31471;51.040;14.414;2023-03-19T16:20:13;12.80;85.60
45761;DHT22;31471;51.040;14.414;2023-03-19T16:22:39;12.80;85.00
45761;DHT22;31471;51.040;14.414;2023-03-19T16:25:13;12.80;84.60
45761;DHT22;31471;51.040;14.414;2023-03-19T16:27:39;12.70;84.10
45761;DHT22;31471;51.040;14.414;2023-03-19T16:30:40;12.70;84.70
45761;DHT22;31471;51.040;14.414;2023-03-19T16:35:22;12.40;83.90
45761;DHT22;31471;51.040;14.414;2023-03-19T16:37:49;12.50;85.60
45761;DHT22;31471;51.040;14.414;2023-03-19T16:42:42;12.40;85.20
45761;DHT22;31471;51.040;14.414;2023-03-19T16:47:43;12.30;85.60
45761;DHT22;31471;51.040;14.414;2023-03-19T16:50:09;12.20;85.30
45761;DHT22;31471;51.040;14.414;2023-03-19T16:52:35;12.10;86.30
45761;DHT22;31471;51.040;14.414;2023-03-19T16:55:01;12.00;86.60
45761;DHT22;31471;51.040;14.414;2023-03-19T16:57:27;12.00;86.90